Hovedside
METAR-TAF:

METAR-TAF

Lufthavner :

Namsos, Norge

Namsos lufthavn

breddegrad: 64-28N, lengdegrad: 011-35E, høyde over havet: 0 m

Gjeldene værobservasjon

Denne rapporten ble laget for 1 time og 12 minutter siden, klokken 09:50 UTC
Vind 5 kt fra Øst
Temperatur 4°C
Luftfuktighet 75%
Trykk 1010 hPa
Sikt 10 km eller mer
Få skyer i en høyde av 500 ft
Spredte skyer i en høyde av 3500 ft
Brutte skyer i en høyde av 5500 ft

METAR: ENNM 270950Z 09005KT 9999 FEW005 SCT035 BKN055 04/00 Q1010

Tid: 13:02 (11:02 UTC)


TAF: fraværende

Værobservasjoner og værvarsel for over 4000 flyplasser (METAR- og TAF-rapporter).

Tilgjengelige stasjoner er representert av de røde og gule prikkene på kartet.

Hold musepekeren over prikken for å se navnet på stasjonen.

Klikk så for å se værobservasjoner og -varsler.

For å forandre kartet kan du klikke på den grønne knappen med svart kryss for å zoome inn, på den grønne knappen med strek for å zoome ut, eller på de grønne pilene for å se tilstøtende kart.


METAR-TAF: